createdAt,value
2023-04-18T00:01:15.535Z,100278.63
2023-04-18T00:04:19.234Z,100278.25
2023-04-18T00:07:21.677Z,100277.06
2023-04-18T00:10:24.295Z,100277.41
2023-04-18T00:13:28.424Z,100282.91
2023-04-18T00:16:33.129Z,100273.72
2023-04-18T00:19:37.640Z,100284.34
2023-04-18T00:22:43.901Z,100288.56
2023-04-18T00:25:46.124Z,100290.50
2023-04-18T00:28:48.863Z,100295.44
2023-04-18T00:31:52.874Z,100285.19
2023-04-18T00:34:55.359Z,100289.28
2023-04-18T00:37:58.325Z,100297.97
2023-04-18T00:41:00.809Z,100298.31
2023-04-18T00:44:03.048Z,100292.31
2023-04-18T00:47:05.946Z,100289.06
2023-04-18T00:50:09.827Z,100289.75
2023-04-18T00:53:13.450Z,100294.84
2023-04-18T00:56:16.169Z,100296.53
2023-04-18T00:59:18.964Z,100301.94
2023-04-18T01:02:21.318Z,100290.59
2023-04-18T01:05:24.050Z,100294.84
2023-04-18T01:08:27.797Z,100284.09
2023-04-18T01:11:32.826Z,100282.41
2023-04-18T01:14:35.064Z,100290.25
2023-04-18T01:17:39.651Z,100287.47
2023-04-18T01:20:45.826Z,100290.84
2023-04-18T01:23:49.044Z,100285.31
2023-04-18T01:26:51.381Z,100288.69
2023-04-18T01:29:54.002Z,100291.22
2023-04-18T01:32:56.372Z,100289.19
2023-04-18T01:36:01.525Z,100288.69
2023-04-18T01:39:06.645Z,100289.78
2023-04-18T01:42:09.181Z,100286.16
2023-04-18T01:45:13.168Z,100286.03
2023-04-18T01:48:15.840Z,100283.34
2023-04-18T01:51:18.043Z,100287.25
2023-04-18T01:54:20.639Z,100289.44
2023-04-18T01:57:23.050Z,100282.31
2023-04-18T02:00:25.980Z,100293.28
2023-04-18T02:03:28.540Z,100287.59
2023-04-18T02:06:31.283Z,100290.03
2023-04-18T02:09:35.102Z,100286.53
2023-04-18T02:12:38.886Z,100284.13
2023-04-18T02:15:41.395Z,100285.47
2023-04-18T02:18:43.914Z,100295.47
2023-04-18T02:21:46.131Z,100292.81
2023-04-18T02:24:49.975Z,100288.94
2023-04-18T02:27:52.958Z,100294.72
2023-04-18T02:30:55.923Z,100295.78
2023-04-18T02:33:59.231Z,100293.63
2023-04-18T02:37:01.839Z,100297.03
2023-04-18T02:40:05.716Z,100302.22
2023-04-18T02:43:09.109Z,100297.97
2023-04-18T02:46:12.108Z,100303.19
2023-04-18T02:49:14.747Z,100306.81
2023-04-18T02:52:17.137Z,100312.84
2023-04-18T02:55:19.738Z,100304.25
2023-04-18T02:58:22.733Z,100307.78
2023-04-18T03:01:26.590Z,100311.44
2023-04-18T03:04:29.277Z,100307.25
2023-04-18T03:07:32.317Z,100310.75
2023-04-18T03:10:34.955Z,100312.19
2023-04-18T03:13:37.760Z,100313.03
2023-04-18T03:16:40.665Z,100324.84
2023-04-18T03:19:45.426Z,100323.41
2023-04-18T03:22:48.045Z,100320.03
2023-04-18T03:25:52.023Z,100318.47
2023-04-18T03:28:54.617Z,100323.41
2023-04-18T03:31:57.084Z,100320.16
2023-04-18T03:34:59.602Z,100321.84
2023-04-18T03:38:02.159Z,100319.06
2023-04-18T03:41:04.885Z,100313.88
2023-04-18T03:44:07.721Z,100319.91
2023-04-18T03:47:11.251Z,100320.50
2023-04-18T03:50:15.286Z,100317.50
2023-04-18T03:53:18.201Z,100324.84
2023-04-18T03:56:20.935Z,100325.19
2023-04-18T03:59:23.423Z,100328.34
2023-04-18T04:02:26.408Z,100327.38
2023-04-18T04:05:29.367Z,100334.38
2023-04-18T04:08:32.579Z,100342.72
2023-04-18T04:11:35.110Z,100334.16
2023-04-18T04:14:38.115Z,100341.03
2023-04-18T04:17:41.091Z,100336.06
2023-04-18T04:20:46.221Z,100342.78
2023-04-18T04:23:49.052Z,100344.12
2023-04-18T04:26:53.258Z,100352.19
2023-04-18T04:29:56.835Z,100351.47
2023-04-18T04:32:59.759Z,100351.28
2023-04-18T04:36:02.410Z,100355.97
2023-04-18T04:39:05.590Z,100363.47
2023-04-18T04:42:09.668Z,100361.53
2023-04-18T04:45:13.810Z,100367.19
2023-04-18T04:48:16.749Z,100374.69
2023-04-18T04:51:18.956Z,100358.41
2023-04-18T04:54:21.546Z,100366.59
2023-04-18T04:57:24.048Z,100372.03
2023-04-18T05:00:27.240Z,100373.34
2023-04-18T05:03:29.588Z,100373.84
2023-04-18T05:06:32.462Z,100386.16
2023-04-18T05:09:34.653Z,100379.63
2023-04-18T05:12:40.066Z,100372.63
2023-04-18T05:15:42.668Z,100378.12
2023-04-18T05:18:45.127Z,100383.84
2023-04-18T05:21:47.356Z,100383.91
2023-04-18T05:24:49.783Z,100382.09
2023-04-18T05:27:52.079Z,100388.84
2023-04-18T05:31:01.032Z,100392.13
2023-04-18T05:34:03.528Z,100389.13
2023-04-18T05:37:06.415Z,100394.81
2023-04-18T05:40:09.148Z,100391.22
2023-04-18T05:43:11.827Z,100395.69
2023-04-18T05:46:14.451Z,100397.59
2023-04-18T05:49:17.092Z,100393.47
2023-04-18T05:52:19.366Z,100397.59
2023-04-18T05:55:21.976Z,100396.56
2023-04-18T05:58:24.162Z,100401.12
2023-04-18T06:01:27.511Z,100398.16
2023-04-18T06:04:30.166Z,100400.81
2023-04-18T06:07:32.779Z,100401.22
2023-04-18T06:10:37.665Z,100404.22
2023-04-18T06:13:41.702Z,100401.16
2023-04-18T06:16:46.831Z,100408.78
2023-04-18T06:19:49.603Z,100403.31
2023-04-18T06:22:52.360Z,100408.00
2023-04-18T06:25:54.892Z,100411.50
2023-04-18T06:28:57.469Z,100409.28
2023-04-18T06:32:00.007Z,100409.78
2023-04-18T06:35:02.664Z,100412.63
2023-04-18T06:38:04.803Z,100417.78
2023-04-18T06:41:07.302Z,100419.91
2023-04-18T06:44:09.548Z,100415.28
2023-04-18T06:47:12.344Z,100420.25
2023-04-18T06:50:15.150Z,100416.59
2023-04-18T06:53:17.890Z,100411.62
2023-04-18T06:56:21.170Z,100418.09
2023-04-18T06:59:23.785Z,100424.97
2023-04-18T07:02:26.180Z,100426.84
2023-04-18T07:05:28.852Z,100433.84
2023-04-18T07:08:31.192Z,100429.00
2023-04-18T07:11:34.106Z,100426.25
2023-04-18T07:14:36.312Z,100428.31
2023-04-18T07:17:39.437Z,100429.84
2023-04-18T07:20:41.776Z,100434.47
2023-04-18T07:23:44.262Z,100427.84
2023-04-18T07:26:46.465Z,100434.06
2023-04-18T07:29:48.894Z,100435.34
2023-04-18T07:32:51.312Z,100441.88
2023-04-18T07:35:53.840Z,100445.59
2023-04-18T07:38:55.967Z,100443.16
2023-04-18T07:41:58.891Z,100445.22
2023-04-18T07:45:01.114Z,100458.41
2023-04-18T07:48:04.252Z,100455.81
2023-04-18T07:51:06.526Z,100446.91
2023-04-18T07:54:11.075Z,100455.69
2023-04-18T07:57:13.389Z,100459.31
2023-04-18T08:00:17.472Z,100462.19
2023-04-18T08:03:20.211Z,100459.41
2023-04-18T08:06:23.197Z,100467.41
2023-04-18T08:09:26.110Z,100463.78
2023-04-18T08:12:28.309Z,100465.69
2023-04-18T08:15:33.039Z,100461.19
2023-04-18T08:18:35.886Z,100463.87
2023-04-18T08:21:39.856Z,100464.59
2023-04-18T08:25:04.425Z,100466.19
2023-04-18T08:28:08.575Z,100463.25
2023-04-18T08:31:15.066Z,100458.88
2023-04-18T08:34:17.740Z,100466.09
2023-04-18T08:37:19.952Z,100470.66
2023-04-18T08:40:27.835Z,100472.22
2023-04-18T08:43:38.878Z,100472.94
2023-04-18T08:46:41.851Z,100478.09
2023-04-18T08:49:45.550Z,100478.22
2023-04-18T08:52:51.174Z,100479.59
2023-04-18T08:55:57.440Z,100484.34
2023-04-18T08:59:00.199Z,100481.53
2023-04-18T09:02:04.224Z,100475.38
2023-04-18T09:05:20.105Z,100479.12
2023-04-18T09:08:24.372Z,100479.16
2023-04-18T09:11:29.696Z,100478.78
2023-04-18T09:14:32.662Z,100473.16
2023-04-18T09:17:42.432Z,100477.50
2023-04-18T09:20:47.712Z,100470.41
2023-04-18T09:23:50.504Z,100472.25
2023-04-18T09:26:54.077Z,100488.09
2023-04-18T09:29:58.034Z,100480.81
2023-04-18T09:33:03.283Z,100481.28
2023-04-18T09:36:19.643Z,100477.87
2023-04-18T09:39:28.620Z,100480.91
2023-04-18T09:42:36.208Z,100477.66
2023-04-18T09:45:39.023Z,100475.78
2023-04-18T09:48:41.945Z,100483.28
2023-04-18T09:51:46.210Z,100469.72
2023-04-18T09:54:53.784Z,100468.03
2023-04-18T09:57:57.164Z,100468.50
2023-04-18T10:01:00.263Z,100466.69
2023-04-18T10:04:06.308Z,100466.59
2023-04-18T10:07:08.925Z,100457.44
2023-04-18T10:10:12.028Z,100473.47
2023-04-18T10:13:14.730Z,100471.47
2023-04-18T10:16:18.143Z,100465.62
2023-04-18T10:19:23.266Z,100472.22
2023-04-18T10:22:27.495Z,100467.75
2023-04-18T10:25:38.853Z,100448.06
2023-04-18T10:28:58.044Z,100464.22
2023-04-18T10:32:06.204Z,100463.94
2023-04-18T10:35:10.562Z,100465.53
2023-04-18T10:38:23.255Z,100462.28
2023-04-18T10:41:27.893Z,100466.81
2023-04-18T10:44:30.041Z,100461.81
2023-04-18T10:47:32.746Z,100460.72
2023-04-18T10:50:55.034Z,100457.44
2023-04-18T10:54:00.875Z,100459.12
2023-04-18T10:57:04.479Z,100449.19
2023-04-18T11:00:13.732Z,100450.81
2023-04-18T11:03:16.263Z,100452.19
2023-04-18T11:06:19.027Z,100453.38
2023-04-18T11:12:36.104Z,100444.37
2023-04-18T11:21:52.635Z,100449.91
2023-04-18T11:25:00.129Z,100454.16
2023-04-18T11:28:03.967Z,100457.87
2023-04-18T11:31:06.804Z,100460.87
2023-04-18T11:34:09.242Z,100455.59
2023-04-18T11:37:15.512Z,100463.81
2023-04-18T11:40:17.835Z,100453.25
2023-04-18T11:43:22.658Z,100452.25
2023-04-18T11:46:37.864Z,100443.72
2023-04-18T11:49:40.621Z,100447.63
2023-04-18T11:52:43.090Z,100449.38
2023-04-18T11:55:55.857Z,100444.44
2023-04-18T11:58:58.235Z,100443.34
2023-04-18T12:02:15.263Z,100446.25
2023-04-18T12:05:27.624Z,100448.44
2023-04-18T12:08:31.727Z,100453.03
2023-04-18T12:11:34.664Z,100448.75
2023-04-18T12:14:36.844Z,100445.72
2023-04-18T12:17:39.456Z,100449.75
2023-04-18T12:20:52.378Z,100433.63
2023-04-18T12:23:55.533Z,100439.63
2023-04-18T12:26:58.581Z,100444.59
2023-04-18T12:30:00.882Z,100436.16
2023-04-18T12:33:04.206Z,100439.25
2023-04-18T12:36:08.554Z,100442.59
2023-04-18T12:39:10.802Z,100439.50
2023-04-18T12:42:13.669Z,100435.59
2023-04-18T12:45:17.469Z,100441.16
2023-04-18T12:48:20.228Z,100438.81
2023-04-18T12:51:23.221Z,100435.81
2023-04-18T12:54:25.807Z,100438.06
2023-04-18T12:57:29.441Z,100439.81
2023-04-18T13:00:34.227Z,100433.50
2023-04-18T13:03:37.325Z,100436.78
2023-04-18T13:06:40.413Z,100438.00
2023-04-18T13:09:42.716Z,100433.53
2023-04-18T13:12:46.474Z,100442.94
2023-04-18T13:15:48.764Z,100435.03
2023-04-18T13:18:51.244Z,100447.00
2023-04-18T13:21:53.392Z,100432.34
2023-04-18T13:24:55.911Z,100441.06
2023-04-18T13:27:58.534Z,100437.37
2023-04-18T13:31:01.228Z,100439.31
2023-04-18T13:34:03.511Z,100436.09
2023-04-18T13:37:06.586Z,100445.44
2023-04-18T13:40:09.435Z,100438.28
2023-04-18T13:43:13.072Z,100439.47
2023-04-18T13:46:15.600Z,100441.16
2023-04-18T13:49:18.048Z,100441.38
2023-04-18T13:52:20.357Z,100444.88
2023-04-18T13:55:22.974Z,100447.91
2023-04-18T13:58:25.650Z,100449.25
2023-04-18T14:01:28.418Z,100443.87
2023-04-18T14:04:32.736Z,100437.06
2023-04-18T14:07:36.263Z,100444.09
2023-04-18T14:10:38.955Z,100436.06
2023-04-18T14:13:41.295Z,100434.34
2023-04-18T14:16:43.967Z,100435.50
2023-04-18T14:19:46.188Z,100428.66
2023-04-18T14:22:52.322Z,100429.50
2023-04-18T14:25:55.575Z,100430.88
2023-04-18T14:28:58.162Z,100427.56
2023-04-18T14:32:00.750Z,100428.81
2023-04-18T14:35:05.950Z,100419.44
2023-04-18T14:38:08.249Z,100427.13
2023-04-18T14:41:11.145Z,100425.12
2023-04-18T14:44:14.585Z,100437.91
2023-04-18T14:47:18.534Z,100429.00
2023-04-18T14:50:20.826Z,100426.16
2023-04-18T14:53:23.780Z,100430.34
2023-04-18T14:56:26.639Z,100430.69
2023-04-18T14:59:29.153Z,100429.16
2023-04-18T15:02:31.603Z,100438.75
2023-04-18T15:05:34.957Z,100437.37
2023-04-18T15:08:37.223Z,100433.19
2023-04-18T15:11:39.758Z,100435.88
2023-04-18T15:14:41.979Z,100429.47
2023-04-18T15:17:44.480Z,100432.72
2023-04-18T15:20:47.412Z,100428.28
2023-04-18T15:23:49.869Z,100439.41
2023-04-18T15:26:52.265Z,100436.50
2023-04-18T15:29:57.442Z,100429.87
2023-04-18T15:32:59.688Z,100429.41
2023-04-18T15:36:02.208Z,100428.56
2023-04-18T15:39:05.832Z,100435.12
2023-04-18T15:42:08.358Z,100431.28
2023-04-18T15:45:11.620Z,100425.50
2023-04-18T15:48:14.010Z,100433.53
2023-04-18T15:51:16.086Z,100437.91
2023-04-18T15:54:18.558Z,100440.87
2023-04-18T15:57:21.412Z,100447.00
2023-04-18T16:00:24.423Z,100438.25
2023-04-18T16:03:27.228Z,100440.87
2023-04-18T16:06:31.229Z,100436.56
2023-04-18T16:09:34.042Z,100439.12
2023-04-18T16:12:37.712Z,100435.81
2023-04-18T16:15:41.864Z,100447.69
2023-04-18T16:18:44.116Z,100445.59
2023-04-18T16:21:48.780Z,100453.34
2023-04-18T16:24:50.923Z,100447.69
2023-04-18T16:27:53.805Z,100457.66
2023-04-18T16:30:56.301Z,100457.41
2023-04-18T16:33:58.859Z,100465.66
2023-04-18T16:37:01.196Z,100463.28
2023-04-18T16:40:08.470Z,100456.06
2023-04-18T16:43:10.656Z,100452.75
2023-04-18T16:46:13.736Z,100460.34
2023-04-18T16:49:16.151Z,100470.53
2023-04-18T16:52:18.794Z,100461.22
2023-04-18T16:55:21.075Z,100458.69
2023-04-18T16:58:23.694Z,100458.38
2023-04-18T17:01:26.023Z,100455.88
2023-04-18T17:04:29.152Z,100465.19
2023-04-18T17:07:31.448Z,100463.94
2023-04-18T17:10:34.503Z,100466.09
2023-04-18T17:13:37.145Z,100466.91
2023-04-18T17:16:41.039Z,100472.72
2023-04-18T17:19:43.350Z,100472.31
2023-04-18T17:22:45.906Z,100472.22
2023-04-18T17:25:48.287Z,100477.16
2023-04-18T17:28:50.833Z,100470.00
2023-04-18T17:31:53.179Z,100472.13
2023-04-18T17:34:56.146Z,100478.22
2023-04-18T17:37:58.431Z,100481.50
2023-04-18T17:41:02.363Z,100477.87
2023-04-18T17:44:05.139Z,100475.09
2023-04-18T17:47:07.582Z,100485.22
2023-04-18T17:50:11.164Z,100487.38
2023-04-18T17:53:15.814Z,100483.00
2023-04-18T17:56:18.060Z,100485.81
2023-04-18T17:59:20.655Z,100492.00
2023-04-18T18:02:28.045Z,100493.75
2023-04-18T18:05:30.766Z,100497.50
2023-04-18T18:08:32.953Z,100500.12
2023-04-18T18:11:35.695Z,100498.56
2023-04-18T18:14:38.051Z,100504.44
2023-04-18T18:17:40.671Z,100506.34
2023-04-18T18:20:43.309Z,100513.31
2023-04-18T18:23:45.939Z,100506.56
2023-04-18T18:26:50.980Z,100510.47
2023-04-18T18:29:54.369Z,100516.47
2023-04-18T18:32:59.981Z,100508.16
2023-04-18T18:36:02.699Z,100514.72
2023-04-18T18:39:05.289Z,100506.88
2023-04-18T18:42:07.867Z,100513.88
2023-04-18T18:45:11.643Z,100512.66
2023-04-18T18:48:15.357Z,100516.31
2023-04-18T18:51:19.001Z,100517.84
2023-04-18T18:54:21.493Z,100515.44
2023-04-18T18:57:23.728Z,100516.56
2023-04-18T19:00:26.288Z,100520.38
2023-04-18T19:03:29.057Z,100527.56
2023-04-18T19:06:32.136Z,100526.34
2023-04-18T19:09:36.867Z,100537.28
2023-04-18T19:12:39.434Z,100536.19
2023-04-18T19:15:41.614Z,100545.00
2023-04-18T19:18:47.052Z,100554.75
2023-04-18T19:21:50.088Z,100568.41
2023-04-18T19:24:52.589Z,100564.62
2023-04-18T19:27:54.770Z,100571.09
2023-04-18T19:30:57.363Z,100575.44
2023-04-18T19:33:59.596Z,100574.44
2023-04-18T19:37:02.171Z,100571.19
2023-04-18T19:40:04.808Z,100570.91
2023-04-18T19:43:07.309Z,100573.72
2023-04-18T19:46:09.671Z,100576.94
2023-04-18T19:49:12.459Z,100581.28
2023-04-18T19:52:14.766Z,100577.50
2023-04-18T19:55:17.214Z,100586.03
2023-04-18T19:58:44.850Z,100578.41
2023-04-18T20:01:47.606Z,100586.37
2023-04-18T20:04:50.611Z,100583.50
2023-04-18T20:07:52.891Z,100591.69
2023-04-18T20:10:56.201Z,100587.91
2023-04-18T20:13:58.444Z,100595.94
2023-04-18T20:17:00.944Z,100593.97
2023-04-18T20:20:04.499Z,100592.97
2023-04-18T20:23:07.370Z,100595.06
2023-04-18T20:26:09.712Z,100592.56
2023-04-18T20:29:12.496Z,100593.00
2023-04-18T20:32:14.983Z,100586.97
2023-04-18T20:35:17.612Z,100590.28
2023-04-18T20:38:20.076Z,100597.16
2023-04-18T20:41:24.253Z,100588.44
2023-04-18T20:44:26.541Z,100587.62
2023-04-18T20:47:29.032Z,100585.38
2023-04-18T20:50:31.452Z,100578.53
2023-04-18T20:53:34.012Z,100583.41
2023-04-18T20:56:36.992Z,100592.13
2023-04-18T20:59:39.489Z,100591.81
2023-04-18T21:02:41.979Z,100594.44
2023-04-18T21:05:45.032Z,100587.13
2023-04-18T21:08:47.615Z,100586.94
2023-04-18T21:11:50.052Z,100584.91
2023-04-18T21:14:52.499Z,100579.47
2023-04-18T21:17:55.928Z,100581.78
2023-04-18T21:20:58.196Z,100581.78
2023-04-18T21:24:01.738Z,100584.56
2023-04-18T21:27:04.159Z,100581.16
2023-04-18T21:30:07.240Z,100575.94
2023-04-18T21:33:09.497Z,100575.97
2023-04-18T21:36:11.922Z,100568.19
2023-04-18T21:39:14.125Z,100572.09
2023-04-18T21:42:16.868Z,100571.88
2023-04-18T21:45:19.106Z,100568.59
2023-04-18T21:48:21.728Z,100571.41
2023-04-18T21:51:23.930Z,100573.97
2023-04-18T21:54:26.464Z,100574.88
2023-04-18T21:57:28.796Z,100568.81
2023-04-18T22:00:31.287Z,100573.25
2023-04-18T22:03:34.448Z,100571.44
2023-04-18T22:06:36.771Z,100569.28
2023-04-18T22:09:39.758Z,100561.56
2023-04-18T22:12:42.425Z,100563.75
2023-04-18T22:15:45.026Z,100562.91
2023-04-18T22:18:48.822Z,100566.88
2023-04-18T22:21:51.561Z,100558.06
2023-04-18T22:24:53.820Z,100560.25
2023-04-18T22:27:56.495Z,100561.94
2023-04-18T22:30:58.722Z,100564.22
2023-04-18T22:34:01.434Z,100560.84
2023-04-18T22:37:03.711Z,100553.56
2023-04-18T22:40:07.000Z,100548.25
2023-04-18T22:43:09.174Z,100548.63
2023-04-18T22:46:11.654Z,100549.84
2023-04-18T22:49:14.224Z,100544.09
2023-04-18T22:52:16.659Z,100534.22
2023-04-18T22:55:19.948Z,100535.31
2023-04-18T22:58:22.424Z,100531.22
2023-04-18T23:01:24.671Z,100526.03
2023-04-18T23:04:30.022Z,100523.66
2023-04-18T23:07:32.405Z,100522.34
2023-04-18T23:10:35.099Z,100518.37
2023-04-18T23:13:37.315Z,100518.25
2023-04-18T23:16:41.033Z,100521.16
2023-04-18T23:19:45.168Z,100515.37
2023-04-18T23:22:50.069Z,100510.34
2023-04-18T23:25:52.290Z,100513.31
2023-04-18T23:28:54.844Z,100495.53
2023-04-18T23:31:57.097Z,100497.41
2023-04-18T23:35:04.080Z,100491.50
2023-04-18T23:38:06.287Z,100485.84
2023-04-18T23:41:08.734Z,100481.37
2023-04-18T23:44:10.911Z,100483.41
2023-04-18T23:47:13.450Z,100475.66
2023-04-18T23:50:15.803Z,100473.38
2023-04-18T23:53:19.257Z,100468.78
2023-04-18T23:56:23.116Z,100471.56
2023-04-18T23:59:25.588Z,100467.63
